Flight Track Log - Related Links

Times and Time Zones

All times are in EDT time to prevent confusion due to time zone crossing. See the N8192Q flight status page for this flight to view local times or setup timezone preferences in your user account.

Time Position Orientation Groundspeed Altitude Reporting Facility
EDT Latitude Longitude Course Direction KTS MPH feet Rate Location/Type
Fri 02:08:10 PM 35.3906 -83.7739 202° Southwest 129 148 7,600  Level Atlanta Center
Fri 02:09:10 PM 35.3550 -83.7892 199° South 129 148 7,600 -50 Level Atlanta Center
Fri 02:10:10 PM 35.3217 -83.8072 204° Southwest 129 148 7,500  Descending Atlanta Center
Fri 02:11:10 PM 35.2903 -83.8225 202° Southwest 129 148 7,600 50 Climbing Atlanta Center
Fri 02:12:10 PM 35.2569 -83.8353 197° South 129 148 7,600  Level Atlanta Center
Fri 02:13:00 PM 35.9587 -83.4839 202° Southwest  Level Estimated
Fri 02:13:10 PM 35.2258 -83.8531 205° Southwest 129 148 7,600  Level Atlanta Center
Fri 02:14:10 PM 35.1925 -83.8686 201° Southwest 129 148 7,500 -50 Descending Atlanta Center
Fri 02:15:10 PM 35.1569 -83.8839 199° South 134 154 7,500 50 Level Atlanta Center
Fri 02:16:10 PM 35.1236 -83.8992 201° Southwest 134 154 7,600  Climbing Atlanta Center
Fri 02:17:10 PM 35.0903 -83.9144 201° Southwest 134 154 7,500 -50 Descending Atlanta Center
Fri 02:18:10 PM 35.0547 -83.9322 202° Southwest 134 154 7,500  Level Atlanta Center
Fri 02:19:10 PM 35.0214 -83.9475 201° Southwest 134 154 7,500 50 Level Atlanta Center
Fri 02:20:10 PM 34.9858 -83.9653 202° Southwest 134 154 7,600  Climbing Atlanta Center
Fri 02:21:10 PM 34.9506 -83.9806 200° South 134 154 7,500  Descending Atlanta Center
Fri 02:22:10 PM 34.9192 -83.9983 205° Southwest 129 148 7,600  Climbing Atlanta Center
Fri 02:23:10 PM 34.8858 -84.0133 200° South 129 148 7,500  Descending Atlanta Center
Fri 02:24:10 PM 34.8503 -84.0286 199° South 129 148 7,600 50 Climbing Atlanta Center
Fri 02:25:10 PM 34.8147 -84.0464 202° Southwest 129 148 7,600  Level Atlanta Center
Fri 02:26:10 PM 34.7772 -84.0617 199° South 134 154 7,600 -50 Level Atlanta Center
Fri 02:27:10 PM 34.7458 -84.0792 205° Southwest 134 154 7,500 -50 Descending Atlanta Center
Fri 02:28:10 PM 34.7147 -84.0944 202° Southwest 129 148 7,500  Level Atlanta Center
Fri 02:29:10 PM 34.6811 -84.1069 197° South 129 148 7,500 -50 Level Atlanta Center
Fri 02:30:10 PM 34.6500 -84.1194 198° South 129 148 7,400 -200 Descending Atlanta Center
Fri 02:31:10 PM 34.6164 -84.1322 197° South 129 148 7,100 -300 Descending Atlanta Center
Fri 02:32:10 PM 34.5811 -84.1497 202° Southwest 129 148 6,800 -150 Descending Atlanta Center
Fri 02:33:10 PM 34.5497 -84.1650 202° Southwest 134 154 6,800 -50 Level Atlanta Center
Fri 02:34:10 PM 34.5164 -84.1800 200° South 132 152 6,700 -250 Descending Atlanta Center
Fri 02:35:10 PM 34.4828 -84.1950 200° South 132 152 6,300 -400 Descending Atlanta Center
Fri 02:36:10 PM 34.4494 -84.2125 203° Southwest 132 152 5,900 -350 Descending Atlanta Center
Fri 02:37:10 PM 34.4139 -84.2303 202° Southwest 132 152 5,600 -250 Descending Atlanta Center
Fri 02:38:10 PM 34.3806 -84.2453 200° South 132 152 5,400 -250 Descending Atlanta Center
Fri 02:39:10 PM 34.3450 -84.2603 199° South 132 152 5,100 -250 Descending Atlanta Center
Fri 02:40:10 PM 34.3094 -84.2753 199° South 132 152 4,900 -200 Descending Atlanta Center
Fri 02:41:10 PM 34.2719 -84.2928 201° Southwest 132 152 4,700 -100 Descending Atlanta Center
Fri 02:42:10 PM 34.2364 -84.3103 202° Southwest 132 152 4,700 -50 Level Atlanta Center
Fri 02:43:10 PM 34.2050 -84.3250 201° Southwest 132 152 4,600  Descending Atlanta Center
Fri 02:44:10 PM 34.1694 -84.3425 202° Southwest 132 152 4,700 50 Climbing Atlanta Center
Fri 02:45:10 PM 34.1342 -84.3575 199° South 132 152 4,700  Level Atlanta Center
Fri 02:46:10 PM 34.1028 -84.3725 202° Southwest 132 152 4,700  Level Atlanta Center
Fri 02:48:37 PM 34.0167 -84.4167 203° Southwest 129 148 4,700  Level Atlanta TRACON
Fri 02:49:37 PM 33.9833 -84.4333 203° Southwest 129 148 4,700 53 Level Atlanta TRACON
Fri 02:50:31 PM 33.9500 -84.4333 180° South 136 157 4,800  Climbing Atlanta TRACON
Fri 02:51:37 PM 33.9167 -84.4333 180° South 138 159 4,700 -381 Descending Atlanta TRACON
Fri 02:52:37 PM 33.8667 -84.4500 195° South 134 154 4,000 -828 Descending Atlanta TRACON
Fri 02:54:31 PM 33.8167 -84.4833 209° Southwest 123 142 2,300 -655 Descending Atlanta TRACON
Fri 02:55:31 PM 33.8000 -84.5167 239° Southwest 101 116 2,100 -50 Descending Atlanta TRACON
Fri 02:56:31 PM 33.8000 -84.5333 270° West 94 108 2,200  Climbing Atlanta TRACON
Fri 02:57:31 PM 33.8167 -84.5500 320° Northwest 104 120 2,100 -209 Descending Atlanta TRACON
Fri 02:58:26 PM 33.8000 -84.5500 180° South 101 116 1,800 -327 Descending Atlanta TRACON
Fri 03:00:00 PM 33.7791 -84.5214 151° Southeast  Level Estimated

Login

Don't have an account? Register now (free) for customized features, flight alerts, and more!